sensor_id;sensor_type;location;lat;lon;timestamp;temperature;humidity
15844;DHT22;50807;52.436;13.346;2022-11-15T00:00:14;10.50;91.00
15844;DHT22;50807;52.436;13.346;2022-11-15T00:00:45;10.50;91.00
15844;DHT22;50807;52.436;13.346;2022-11-15T00:01:18;10.50;91.00
15844;DHT22;50807;52.436;13.346;2022-11-15T00:01:49;10.50;91.00
15844;DHT22;50807;52.436;13.346;2022-11-15T00:02:20;10.50;91.00
15844;DHT22;50807;52.436;13.346;2022-11-15T00:02:52;10.50;91.00
15844;DHT22;50807;52.436;13.346;2022-11-15T00:03:25;10.50;91.00
15844;DHT22;50807;52.436;13.346;2022-11-15T00:03:57;10.50;91.00
15844;DHT22;50807;52.436;13.346;2022-11-15T00:04:28;10.50;91.00
15844;DHT22;50807;52.436;13.346;2022-11-15T00:04:59;10.50;91.00
15844;DHT22;50807;52.436;13.346;2022-11-15T00:05:34;10.50;91.10
15844;DHT22;50807;52.436;13.346;2022-11-15T00:06:05;10.50;91.10
15844;DHT22;50807;52.436;13.346;2022-11-15T00:06:37;10.50;91.10
15844;DHT22;50807;52.436;13.346;2022-11-15T00:07:08;10.50;91.10
15844;DHT22;50807;52.436;13.346;2022-11-15T00:07:40;10.50;91.10
15844;DHT22;50807;52.436;13.346;2022-11-15T00:08:12;10.50;91.10
15844;DHT22;50807;52.436;13.346;2022-11-15T00:08:43;10.50;91.10
15844;DHT22;50807;52.436;13.346;2022-11-15T00:09:13;10.50;91.10
15844;DHT22;50807;52.436;13.346;2022-11-15T00:09:45;10.50;91.10
15844;DHT22;50807;52.436;13.346;2022-11-15T00:10:16;10.50;91.50
15844;DHT22;50807;52.436;13.346;2022-11-15T00:10:54;10.50;91.20
15844;DHT22;50807;52.436;13.346;2022-11-15T00:11:26;10.50;91.20
15844;DHT22;50807;52.436;13.346;2022-11-15T00:11:57;10.50;91.20
15844;DHT22;50807;52.436;13.346;2022-11-15T00:12:28;10.50;91.20
15844;DHT22;50807;52.436;13.346;2022-11-15T00:13:03;10.50;91.20
15844;DHT22;50807;52.436;13.346;2022-11-15T00:13:35;10.50;91.20
15844;DHT22;50807;52.436;13.346;2022-11-15T00:14:05;10.50;91.20
15844;DHT22;50807;52.436;13.346;2022-11-15T00:14:37;10.50;91.20
15844;DHT22;50807;52.436;13.346;2022-11-15T00:15:08;10.40;91.20
15844;DHT22;50807;52.436;13.346;2022-11-15T00:15:40;10.40;91.20
15844;DHT22;50807;52.436;13.346;2022-11-15T00:16:12;10.40;91.20
15844;DHT22;50807;52.436;13.346;2022-11-15T00:16:43;10.40;91.20
15844;DHT22;50807;52.436;13.346;2022-11-15T00:17:15;10.40;91.20
15844;DHT22;50807;52.436;13.346;2022-11-15T00:17:48;10.40;91.20
15844;DHT22;50807;52.436;13.346;2022-11-15T00:18:19;10.40;91.30
15844;DHT22;50807;52.436;13.346;2022-11-15T00:18:50;10.50;91.30
15844;DHT22;50807;52.436;13.346;2022-11-15T00:19:22;10.40;91.30
15844;DHT22;50807;52.436;13.346;2022-11-15T00:19:53;10.40;91.30
15844;DHT22;50807;52.436;13.346;2022-11-15T00:20:24;10.40;91.30
15844;DHT22;50807;52.436;13.346;2022-11-15T00:20:56;10.40;91.30
15844;DHT22;50807;52.436;13.346;2022-11-15T00:21:33;10.40;91.30
15844;DHT22;50807;52.436;13.346;2022-11-15T00:22:03;10.40;91.40
15844;DHT22;50807;52.436;13.346;2022-11-15T00:22:35;10.40;91.40
15844;DHT22;50807;52.436;13.346;2022-11-15T00:23:07;10.40;91.40
15844;DHT22;50807;52.436;13.346;2022-11-15T00:23:39;10.40;91.40
15844;DHT22;50807;52.436;13.346;2022-11-15T00:24:10;10.40;91.40
15844;DHT22;50807;52.436;13.346;2022-11-15T00:24:42;10.40;91.70
15844;DHT22;50807;52.436;13.346;2022-11-15T00:25:13;10.40;91.40
15844;DHT22;50807;52.436;13.346;2022-11-15T00:25:44;10.40;91.40
15844;DHT22;50807;52.436;13.346;2022-11-15T00:26:16;10.40;91.40
15844;DHT22;50807;52.436;13.346;2022-11-15T00:26:46;10.40;91.40
15844;DHT22;50807;52.436;13.346;2022-11-15T00:27:17;10.40;91.40
15844;DHT22;50807;52.436;13.346;2022-11-15T00:27:49;10.40;91.50
15844;DHT22;50807;52.436;13.346;2022-11-15T00:28:22;10.40;91.50
15844;DHT22;50807;52.436;13.346;2022-11-15T00:28:52;10.40;91.50
15844;DHT22;50807;52.436;13.346;2022-11-15T00:29:24;10.40;91.50
15844;DHT22;50807;52.436;13.346;2022-11-15T00:29:55;10.40;91.50
15844;DHT22;50807;52.436;13.346;2022-11-15T00:30:26;10.40;91.50
15844;DHT22;50807;52.436;13.346;2022-11-15T00:31:02;10.30;91.50
15844;DHT22;50807;52.436;13.346;2022-11-15T00:31:34;10.30;91.50
15844;DHT22;50807;52.436;13.346;2022-11-15T00:32:05;10.30;91.50
15844;DHT22;50807;52.436;13.346;2022-11-15T00:32:37;10.30;91.50
15844;DHT22;50807;52.436;13.346;2022-11-15T00:33:08;10.30;91.50
15844;DHT22;50807;52.436;13.346;2022-11-15T00:33:43;10.30;91.50
15844;DHT22;50807;52.436;13.346;2022-11-15T00:34:15;10.30;91.60
15844;DHT22;50807;52.436;13.346;2022-11-15T00:34:46;10.30;91.50
15844;DHT22;50807;52.436;13.346;2022-11-15T00:35:18;10.30;91.60
15844;DHT22;50807;52.436;13.346;2022-11-15T00:35:50;10.40;91.60
15844;DHT22;50807;52.436;13.346;2022-11-15T00:36:21;10.30;91.60
15844;DHT22;50807;52.436;13.346;2022-11-15T00:36:52;10.40;91.60
15844;DHT22;50807;52.436;13.346;2022-11-15T00:37:24;10.30;91.60
15844;DHT22;50807;52.436;13.346;2022-11-15T00:37:55;10.30;91.60
15844;DHT22;50807;52.436;13.346;2022-11-15T00:38:30;10.30;91.70
15844;DHT22;50807;52.436;13.346;2022-11-15T00:39:03;10.30;91.70
15844;DHT22;50807;52.436;13.346;2022-11-15T00:39:35;10.30;91.70
15844;DHT22;50807;52.436;13.346;2022-11-15T00:40:07;10.30;91.70
15844;DHT22;50807;52.436;13.346;2022-11-15T00:40:39;10.30;91.70
15844;DHT22;50807;52.436;13.346;2022-11-15T00:41:11;10.30;91.70
15844;DHT22;50807;52.436;13.346;2022-11-15T00:41:42;10.30;91.70
15844;DHT22;50807;52.436;13.346;2022-11-15T00:42:13;10.30;91.70
15844;DHT22;50807;52.436;13.346;2022-11-15T00:42:45;10.30;91.70
15844;DHT22;50807;52.436;13.346;2022-11-15T00:43:16;10.30;91.70
15844;DHT22;50807;52.436;13.346;2022-11-15T00:43:47;10.30;91.70
15844;DHT22;50807;52.436;13.346;2022-11-15T00:44:19;10.30;91.70
15844;DHT22;50807;52.436;13.346;2022-11-15T00:44:49;10.30;91.70
15844;DHT22;50807;52.436;13.346;2022-11-15T00:45:20;10.30;91.70
15844;DHT22;50807;52.436;13.346;2022-11-15T00:45:52;10.30;91.70
15844;DHT22;50807;52.436;13.346;2022-11-15T00:46:23;10.30;91.70
15844;DHT22;50807;52.436;13.346;2022-11-15T00:46:54;10.30;91.70
15844;DHT22;50807;52.436;13.346;2022-11-15T00:47:26;10.30;91.80
15844;DHT22;50807;52.436;13.346;2022-11-15T00:47:56;10.30;91.80
15844;DHT22;50807;52.436;13.346;2022-11-15T00:48:28;10.30;91.80
15844;DHT22;50807;52.436;13.346;2022-11-15T00:48:59;10.30;91.80
15844;DHT22;50807;52.436;13.346;2022-11-15T00:49:31;10.30;91.80
15844;DHT22;50807;52.436;13.346;2022-11-15T00:50:02;10.30;91.80
15844;DHT22;50807;52.436;13.346;2022-11-15T00:50:33;10.30;91.80
15844;DHT22;50807;52.436;13.346;2022-11-15T00:51:05;10.30;91.80
15844;DHT22;50807;52.436;13.346;2022-11-15T00:51:36;10.30;91.80
15844;DHT22;50807;52.436;13.346;2022-11-15T00:52:06;10.30;91.80
15844;DHT22;50807;52.436;13.346;2022-11-15T00:52:38;10.30;91.80
15844;DHT22;50807;52.436;13.346;2022-11-15T00:53:09;10.30;91.80
15844;DHT22;50807;52.436;13.346;2022-11-15T00:53:41;10.20;91.80
15844;DHT22;50807;52.436;13.346;2022-11-15T00:54:13;10.20;91.80
15844;DHT22;50807;52.436;13.346;2022-11-15T00:54:44;10.20;91.80
15844;DHT22;50807;52.436;13.346;2022-11-15T00:55:15;10.20;91.80
15844;DHT22;50807;52.436;13.346;2022-11-15T00:55:48;10.20;91.90
15844;DHT22;50807;52.436;13.346;2022-11-15T00:56:19;10.20;91.90
15844;DHT22;50807;52.436;13.346;2022-11-15T00:56:50;10.20;91.90
15844;DHT22;50807;52.436;13.346;2022-11-15T00:57:22;10.20;91.90
15844;DHT22;50807;52.436;13.346;2022-11-15T00:57:53;10.20;91.90
15844;DHT22;50807;52.436;13.346;2022-11-15T00:58:23;10.20;91.90
15844;DHT22;50807;52.436;13.346;2022-11-15T00:58:54;10.20;91.90
15844;DHT22;50807;52.436;13.346;2022-11-15T00:59:26;10.20;91.90
15844;DHT22;50807;52.436;13.346;2022-11-15T00:59:57;10.20;91.90
15844;DHT22;50807;52.436;13.346;2022-11-15T01:00:28;10.20;91.90
15844;DHT22;50807;52.436;13.346;2022-11-15T01:01:05;10.20;92.00
15844;DHT22;50807;52.436;13.346;2022-11-15T01:01:38;10.20;92.00
15844;DHT22;50807;52.436;13.346;2022-11-15T01:02:09;10.20;92.00
15844;DHT22;50807;52.436;13.346;2022-11-15T01:02:40;10.20;92.00
15844;DHT22;50807;52.436;13.346;2022-11-15T01:03:12;10.20;92.00
15844;DHT22;50807;52.436;13.346;2022-11-15T01:03:43;10.20;92.00
15844;DHT22;50807;52.436;13.346;2022-11-15T01:04:13;10.20;92.00
15844;DHT22;50807;52.436;13.346;2022-11-15T01:04:45;10.20;92.00
15844;DHT22;50807;52.436;13.346;2022-11-15T01:05:16;10.20;92.00
15844;DHT22;50807;52.436;13.346;2022-11-15T01:05:47;10.20;92.00
15844;DHT22;50807;52.436;13.346;2022-11-15T01:06:19;10.20;92.00
15844;DHT22;50807;52.436;13.346;2022-11-15T01:06:50;10.20;92.10
15844;DHT22;50807;52.436;13.346;2022-11-15T01:07:20;10.20;92.10
15844;DHT22;50807;52.436;13.346;2022-11-15T01:07:52;10.10;92.00
15844;DHT22;50807;52.436;13.346;2022-11-15T01:08:24;10.10;92.10
15844;DHT22;50807;52.436;13.346;2022-11-15T01:08:56;10.10;92.10
15844;DHT22;50807;52.436;13.346;2022-11-15T01:09:28;10.10;92.10
15844;DHT22;50807;52.436;13.346;2022-11-15T01:09:59;10.10;92.10
15844;DHT22;50807;52.436;13.346;2022-11-15T01:10:29;10.10;92.10
15844;DHT22;50807;52.436;13.346;2022-11-15T01:11:02;10.10;92.10
15844;DHT22;50807;52.436;13.346;2022-11-15T01:11:34;10.10;92.20
15844;DHT22;50807;52.436;13.346;2022-11-15T01:12:05;10.10;92.10
15844;DHT22;50807;52.436;13.346;2022-11-15T01:12:37;10.10;92.20
15844;DHT22;50807;52.436;13.346;2022-11-15T01:13:08;10.10;92.20
15844;DHT22;50807;52.436;13.346;2022-11-15T01:13:39;10.10;92.20
15844;DHT22;50807;52.436;13.346;2022-11-15T01:14:11;10.10;92.20
15844;DHT22;50807;52.436;13.346;2022-11-15T01:14:42;10.10;92.20
15844;DHT22;50807;52.436;13.346;2022-11-15T01:15:13;10.10;92.20
15844;DHT22;50807;52.436;13.346;2022-11-15T01:15:44;10.10;92.40
15844;DHT22;50807;52.436;13.346;2022-11-15T01:16:17;10.10;92.20
15844;DHT22;50807;52.436;13.346;2022-11-15T01:16:49;10.10;92.30
15844;DHT22;50807;52.436;13.346;2022-11-15T01:17:20;10.10;92.30
15844;DHT22;50807;52.436;13.346;2022-11-15T01:17:51;10.10;92.30
15844;DHT22;50807;52.436;13.346;2022-11-15T01:18:22;10.10;92.30
15844;DHT22;50807;52.436;13.346;2022-11-15T01:18:54;10.10;92.30
15844;DHT22;50807;52.436;13.346;2022-11-15T01:19:25;10.10;92.30
15844;DHT22;50807;52.436;13.346;2022-11-15T01:19:55;10.10;92.30
15844;DHT22;50807;52.436;13.346;2022-11-15T01:20:27;10.10;92.60
15844;DHT22;50807;52.436;13.346;2022-11-15T01:20:58;10.10;92.30
15844;DHT22;50807;52.436;13.346;2022-11-15T01:21:29;10.10;92.30
15844;DHT22;50807;52.436;13.346;2022-11-15T01:22:01;10.10;92.40
15844;DHT22;50807;52.436;13.346;2022-11-15T01:22:32;10.10;92.40
15844;DHT22;50807;52.436;13.346;2022-11-15T01:23:03;10.10;92.40
15844;DHT22;50807;52.436;13.346;2022-11-15T01:23:34;10.10;92.40
15844;DHT22;50807;52.436;13.346;2022-11-15T01:24:07;10.10;92.40
15844;DHT22;50807;52.436;13.346;2022-11-15T01:24:43;10.10;92.40
15844;DHT22;50807;52.436;13.346;2022-11-15T01:25:15;10.10;92.40
15844;DHT22;50807;52.436;13.346;2022-11-15T01:25:45;10.10;92.40
15844;DHT22;50807;52.436;13.346;2022-11-15T01:26:16;10.00;92.40
15844;DHT22;50807;52.436;13.346;2022-11-15T01:26:48;10.10;92.40
15844;DHT22;50807;52.436;13.346;2022-11-15T01:27:19;10.00;92.40
15844;DHT22;50807;52.436;13.346;2022-11-15T01:27:50;10.00;92.40
15844;DHT22;50807;52.436;13.346;2022-11-15T01:28:20;10.10;92.40
15844;DHT22;50807;52.436;13.346;2022-11-15T01:28:53;10.00;92.40
15844;DHT22;50807;52.436;13.346;2022-11-15T01:29:23;10.00;92.40
15844;DHT22;50807;52.436;13.346;2022-11-15T01:29:54;10.00;92.40
15844;DHT22;50807;52.436;13.346;2022-11-15T01:30:26;10.00;92.40
15844;DHT22;50807;52.436;13.346;2022-11-15T01:30:58;10.00;92.50
15844;DHT22;50807;52.436;13.346;2022-11-15T01:31:29;10.00;92.50
15844;DHT22;50807;52.436;13.346;2022-11-15T01:32:01;10.00;92.50
15844;DHT22;50807;52.436;13.346;2022-11-15T01:32:32;10.00;92.50
15844;DHT22;50807;52.436;13.346;2022-11-15T01:33:03;10.00;92.50
15844;DHT22;50807;52.436;13.346;2022-11-15T01:33:35;10.00;92.50
15844;DHT22;50807;52.436;13.346;2022-11-15T01:34:06;10.00;92.50
15844;DHT22;50807;52.436;13.346;2022-11-15T01:34:37;10.00;92.80
15844;DHT22;50807;52.436;13.346;2022-11-15T01:35:09;10.00;92.50
15844;DHT22;50807;52.436;13.346;2022-11-15T01:35:39;10.00;92.50
15844;DHT22;50807;52.436;13.346;2022-11-15T01:36:12;10.00;92.60
15844;DHT22;50807;52.436;13.346;2022-11-15T01:36:45;10.00;92.60
15844;DHT22;50807;52.436;13.346;2022-11-15T01:37:17;10.00;92.60
15844;DHT22;50807;52.436;13.346;2022-11-15T01:37:47;10.00;92.60
15844;DHT22;50807;52.436;13.346;2022-11-15T01:38:19;9.90;92.60
15844;DHT22;50807;52.436;13.346;2022-11-15T01:38:53;9.90;92.60
15844;DHT22;50807;52.436;13.346;2022-11-15T01:39:26;9.90;92.60
15844;DHT22;50807;52.436;13.346;2022-11-15T01:39:57;9.90;92.60
15844;DHT22;50807;52.436;13.346;2022-11-15T01:40:29;9.90;92.60
15844;DHT22;50807;52.436;13.346;2022-11-15T01:41:00;9.90;92.60
15844;DHT22;50807;52.436;13.346;2022-11-15T01:41:32;9.90;92.60
15844;DHT22;50807;52.436;13.346;2022-11-15T01:42:04;9.90;92.70
15844;DHT22;50807;52.436;13.346;2022-11-15T01:42:35;9.90;92.60
15844;DHT22;50807;52.436;13.346;2022-11-15T01:43:20;9.90;92.60
15844;DHT22;50807;52.436;13.346;2022-11-15T01:43:55;9.90;92.70
15844;DHT22;50807;52.436;13.346;2022-11-15T01:44:41;9.90;92.70
15844;DHT22;50807;52.436;13.346;2022-11-15T01:45:15;9.90;92.70
15844;DHT22;50807;52.436;13.346;2022-11-15T01:45:50;9.90;92.60
15844;DHT22;50807;52.436;13.346;2022-11-15T01:46:29;9.90;92.60
15844;DHT22;50807;52.436;13.346;2022-11-15T01:47:08;9.90;92.60
15844;DHT22;50807;52.436;13.346;2022-11-15T01:47:44;9.90;92.60
15844;DHT22;50807;52.436;13.346;2022-11-15T01:48:17;9.90;92.60
15844;DHT22;50807;52.436;13.346;2022-11-15T01:48:50;9.90;92.60
15844;DHT22;50807;52.436;13.346;2022-11-15T01:49:24;9.90;92.60
15844;DHT22;50807;52.436;13.346;2022-11-15T01:50:00;9.90;92.60
15844;DHT22;50807;52.436;13.346;2022-11-15T01:50:34;9.90;92.70
15844;DHT22;50807;52.436;13.346;2022-11-15T01:51:08;9.90;92.70
15844;DHT22;50807;52.436;13.346;2022-11-15T01:51:42;9.90;92.70
15844;DHT22;50807;52.436;13.346;2022-11-15T01:52:17;9.90;92.70
15844;DHT22;50807;52.436;13.346;2022-11-15T01:52:50;9.90;92.80
15844;DHT22;50807;52.436;13.346;2022-11-15T01:53:23;9.90;92.70
15844;DHT22;50807;52.436;13.346;2022-11-15T01:53:58;9.90;92.80
15844;DHT22;50807;52.436;13.346;2022-11-15T01:54:33;9.80;92.80
15844;DHT22;50807;52.436;13.346;2022-11-15T01:55:08;9.80;92.80
15844;DHT22;50807;52.436;13.346;2022-11-15T01:55:43;9.80;92.80
15844;DHT22;50807;52.436;13.346;2022-11-15T01:56:18;9.80;92.80
15844;DHT22;50807;52.436;13.346;2022-11-15T01:56:57;9.80;92.80
15844;DHT22;50807;52.436;13.346;2022-11-15T01:57:32;9.80;92.80
15844;DHT22;50807;52.436;13.346;2022-11-15T01:58:05;9.80;92.80
15844;DHT22;50807;52.436;13.346;2022-11-15T01:58:39;9.80;92.80
15844;DHT22;50807;52.436;13.346;2022-11-15T01:59:12;9.80;92.80
15844;DHT22;50807;52.436;13.346;2022-11-15T01:59:45;9.80;92.80
15844;DHT22;50807;52.436;13.346;2022-11-15T02:00:17;9.80;92.80
15844;DHT22;50807;52.436;13.346;2022-11-15T02:00:49;9.80;92.90
15844;DHT22;50807;52.436;13.346;2022-11-15T02:01:21;9.80;92.90
15844;DHT22;50807;52.436;13.346;2022-11-15T02:01:54;9.80;92.90
15844;DHT22;50807;52.436;13.346;2022-11-15T02:02:26;9.80;92.90
15844;DHT22;50807;52.436;13.346;2022-11-15T02:02:57;9.80;92.90
15844;DHT22;50807;52.436;13.346;2022-11-15T02:03:34;9.80;92.90
15844;DHT22;50807;52.436;13.346;2022-11-15T02:04:13;9.80;93.00
15844;DHT22;50807;52.436;13.346;2022-11-15T02:04:47;9.80;93.00
15844;DHT22;50807;52.436;13.346;2022-11-15T02:05:18;9.80;92.90
15844;DHT22;50807;52.436;13.346;2022-11-15T02:05:50;9.80;92.90
15844;DHT22;50807;52.436;13.346;2022-11-15T02:06:21;9.80;93.00
15844;DHT22;50807;52.436;13.346;2022-11-15T02:06:53;9.80;93.00
15844;DHT22;50807;52.436;13.346;2022-11-15T02:07:24;9.80;93.00
15844;DHT22;50807;52.436;13.346;2022-11-15T02:07:57;9.80;93.00
15844;DHT22;50807;52.436;13.346;2022-11-15T02:08:29;9.80;93.00
15844;DHT22;50807;52.436;13.346;2022-11-15T02:09:00;9.80;93.00
15844;DHT22;50807;52.436;13.346;2022-11-15T02:09:35;9.80;93.00
15844;DHT22;50807;52.436;13.346;2022-11-15T02:10:09;9.80;93.10
15844;DHT22;50807;52.436;13.346;2022-11-15T02:10:40;9.80;93.10
15844;DHT22;50807;52.436;13.346;2022-11-15T02:11:12;9.80;93.10
15844;DHT22;50807;52.436;13.346;2022-11-15T02:11:44;9.80;93.10
15844;DHT22;50807;52.436;13.346;2022-11-15T02:12:19;9.70;93.10
15844;DHT22;50807;52.436;13.346;2022-11-15T02:12:53;9.70;93.10
15844;DHT22;50807;52.436;13.346;2022-11-15T02:13:25;9.70;93.10
15844;DHT22;50807;52.436;13.346;2022-11-15T02:13:57;9.70;93.10
15844;DHT22;50807;52.436;13.346;2022-11-15T02:14:31;9.70;93.20
15844;DHT22;50807;52.436;13.346;2022-11-15T02:15:05;9.70;93.10
15844;DHT22;50807;52.436;13.346;2022-11-15T02:15:41;9.70;93.20
15844;DHT22;50807;52.436;13.346;2022-11-15T02:16:27;9.70;93.20
15844;DHT22;50807;52.436;13.346;2022-11-15T02:17:18;9.80;93.30
15844;DHT22;50807;52.436;13.346;2022-11-15T02:18:11;9.80;93.30
15844;DHT22;50807;52.436;13.346;2022-11-15T02:18:55;9.80;93.20
15844;DHT22;50807;52.436;13.346;2022-11-15T02:21:11;9.80;93.10
15844;DHT22;50807;52.436;13.346;2022-11-15T02:22:00;9.80;93.10
15844;DHT22;50807;52.436;13.346;2022-11-15T02:22:51;9.80;92.90
15844;DHT22;50807;52.436;13.346;2022-11-15T02:25:29;9.80;92.90
15844;DHT22;50807;52.436;13.346;2022-11-15T02:26:28;9.80;92.80
15844;DHT22;50807;52.436;13.346;2022-11-15T02:27:51;9.90;92.70
15844;DHT22;50807;52.436;13.346;2022-11-15T02:28:44;9.90;92.70
15844;DHT22;50807;52.436;13.346;2022-11-15T02:29:34;9.90;92.60
15844;DHT22;50807;52.436;13.346;2022-11-15T02:30:23;9.80;92.60
15844;DHT22;50807;52.436;13.346;2022-11-15T02:31:04;9.80;92.50
15844;DHT22;50807;52.436;13.346;2022-11-15T02:31:47;9.80;92.90
15844;DHT22;50807;52.436;13.346;2022-11-15T02:32:29;9.80;92.60
15844;DHT22;50807;52.436;13.346;2022-11-15T02:33:16;9.80;92.60
15844;DHT22;50807;52.436;13.346;2022-11-15T02:34:04;9.70;92.60
15844;DHT22;50807;52.436;13.346;2022-11-15T02:34:48;9.70;92.70
15844;DHT22;50807;52.436;13.346;2022-11-15T02:35:29;9.70;92.70
15844;DHT22;50807;52.436;13.346;2022-11-15T02:36:10;9.70;92.70
15844;DHT22;50807;52.436;13.346;2022-11-15T02:36:53;9.70;92.80
15844;DHT22;50807;52.436;13.346;2022-11-15T02:37:42;9.70;92.80
15844;DHT22;50807;52.436;13.346;2022-11-15T02:38:24;9.70;92.90
15844;DHT22;50807;52.436;13.346;2022-11-15T02:39:06;9.70;92.90
15844;DHT22;50807;52.436;13.346;2022-11-15T02:39:46;9.70;92.90
15844;DHT22;50807;52.436;13.346;2022-11-15T02:40:28;9.70;92.90
15844;DHT22;50807;52.436;13.346;2022-11-15T02:41:11;9.60;92.90
15844;DHT22;50807;52.436;13.346;2022-11-15T02:41:49;9.60;92.90
15844;DHT22;50807;52.436;13.346;2022-11-15T02:42:26;9.60;92.90
15844;DHT22;50807;52.436;13.346;2022-11-15T02:43:25;9.60;93.30
15844;DHT22;50807;52.436;13.346;2022-11-15T02:44:23;9.60;93.00
15844;DHT22;50807;52.436;13.346;2022-11-15T02:44:58;9.60;93.00
15844;DHT22;50807;52.436;13.346;2022-11-15T02:45:40;9.60;93.00
15844;DHT22;50807;52.436;13.346;2022-11-15T02:46:20;9.70;93.00
15844;DHT22;50807;52.436;13.346;2022-11-15T02:47:16;9.60;93.00
15844;DHT22;50807;52.436;13.346;2022-11-15T02:47:52;9.60;93.00
15844;DHT22;50807;52.436;13.346;2022-11-15T02:48:26;9.60;93.00
15844;DHT22;50807;52.436;13.346;2022-11-15T02:48:57;9.60;93.00
15844;DHT22;50807;52.436;13.346;2022-11-15T02:49:32;9.60;93.00
15844;DHT22;50807;52.436;13.346;2022-11-15T02:50:07;9.60;93.10
15844;DHT22;50807;52.436;13.346;2022-11-15T02:50:40;9.60;93.10
15844;DHT22;50807;52.436;13.346;2022-11-15T02:51:14;9.60;93.10
15844;DHT22;50807;52.436;13.346;2022-11-15T02:51:47;9.60;93.20
15844;DHT22;50807;52.436;13.346;2022-11-15T02:52:23;9.50;93.20
15844;DHT22;50807;52.436;13.346;2022-11-15T02:52:56;9.50;93.20
15844;DHT22;50807;52.436;13.346;2022-11-15T02:53:27;9.50;93.30
15844;DHT22;50807;52.436;13.346;2022-11-15T02:53:59;9.50;93.30
15844;DHT22;50807;52.436;13.346;2022-11-15T02:54:32;9.50;93.30
15844;DHT22;50807;52.436;13.346;2022-11-15T02:55:04;9.50;93.30
15844;DHT22;50807;52.436;13.346;2022-11-15T02:55:38;9.50;93.30
15844;DHT22;50807;52.436;13.346;2022-11-15T02:56:13;9.50;93.40
15844;DHT22;50807;52.436;13.346;2022-11-15T02:56:45;9.50;93.40
15844;DHT22;50807;52.436;13.346;2022-11-15T02:57:19;9.50;93.40
15844;DHT22;50807;52.436;13.346;2022-11-15T02:58:06;9.50;93.40
15844;DHT22;50807;52.436;13.346;2022-11-15T02:59:00;9.50;93.40
15844;DHT22;50807;52.436;13.346;2022-11-15T03:00:01;9.50;93.40
15844;DHT22;50807;52.436;13.346;2022-11-15T03:00:38;9.50;93.40
15844;DHT22;50807;52.436;13.346;2022-11-15T03:01:23;9.50;93.30
15844;DHT22;50807;52.436;13.346;2022-11-15T03:02:18;9.60;93.30
15844;DHT22;50807;52.436;13.346;2022-11-15T03:04:19;9.60;93.30
15844;DHT22;50807;52.436;13.346;2022-11-15T03:05:06;9.60;93.20
15844;DHT22;50807;52.436;13.346;2022-11-15T03:05:52;9.60;93.10
15844;DHT22;50807;52.436;13.346;2022-11-15T03:06:35;9.60;93.10
15844;DHT22;50807;52.436;13.346;2022-11-15T03:07:16;9.60;93.10
15844;DHT22;50807;52.436;13.346;2022-11-15T03:07:58;9.60;93.10
15844;DHT22;50807;52.436;13.346;2022-11-15T03:08:50;9.60;93.10
15844;DHT22;50807;52.436;13.346;2022-11-15T03:09:33;9.50;93.10
15844;DHT22;50807;52.436;13.346;2022-11-15T03:10:14;9.50;93.10
15844;DHT22;50807;52.436;13.346;2022-11-15T03:10:56;9.50;93.10
15844;DHT22;50807;52.436;13.346;2022-11-15T03:11:37;9.50;93.10
15844;DHT22;50807;52.436;13.346;2022-11-15T03:12:15;9.50;93.10
15844;DHT22;50807;52.436;13.346;2022-11-15T03:12:56;9.50;93.10
15844;DHT22;50807;52.436;13.346;2022-11-15T03:13:37;9.50;93.20
15844;DHT22;50807;52.436;13.346;2022-11-15T03:14:21;9.50;93.20
15844;DHT22;50807;52.436;13.346;2022-11-15T03:15:00;9.50;93.30
15844;DHT22;50807;52.436;13.346;2022-11-15T03:15:40;9.50;93.30
15844;DHT22;50807;52.436;13.346;2022-11-15T03:16:17;9.50;93.30
15844;DHT22;50807;52.436;13.346;2022-11-15T03:16:59;9.50;93.30
15844;DHT22;50807;52.436;13.346;2022-11-15T03:17:38;9.50;93.40
15844;DHT22;50807;52.436;13.346;2022-11-15T03:18:19;9.40;93.30
15844;DHT22;50807;52.436;13.346;2022-11-15T03:18:58;9.40;93.40
15844;DHT22;50807;52.436;13.346;2022-11-15T03:19:37;9.40;93.40
15844;DHT22;50807;52.436;13.346;2022-11-15T03:20:13;9.40;93.40
15844;DHT22;50807;52.436;13.346;2022-11-15T03:20:48;9.40;93.40
15844;DHT22;50807;52.436;13.346;2022-11-15T03:21:22;9.40;93.40
15844;DHT22;50807;52.436;13.346;2022-11-15T03:21:55;9.40;93.40
15844;DHT22;50807;52.436;13.346;2022-11-15T03:22:35;9.40;93.40
15844;DHT22;50807;52.436;13.346;2022-11-15T03:23:11;9.40;93.50
15844;DHT22;50807;52.436;13.346;2022-11-15T03:23:44;9.40;93.50
15844;DHT22;50807;52.436;13.346;2022-11-15T03:24:18;9.40;93.50
15844;DHT22;50807;52.436;13.346;2022-11-15T03:24:53;9.40;93.50
15844;DHT22;50807;52.436;13.346;2022-11-15T03:25:27;9.40;93.60
15844;DHT22;50807;52.436;13.346;2022-11-15T03:26:01;9.40;93.60
15844;DHT22;50807;52.436;13.346;2022-11-15T03:26:39;9.40;93.60
15844;DHT22;50807;52.436;13.346;2022-11-15T03:27:15;9.40;93.60
15844;DHT22;50807;52.436;13.346;2022-11-15T03:27:53;9.40;93.70
15844;DHT22;50807;52.436;13.346;2022-11-15T03:28:31;9.40;93.70
15844;DHT22;50807;52.436;13.346;2022-11-15T03:29:11;9.40;93.70
15844;DHT22;50807;52.436;13.346;2022-11-15T03:29:49;9.40;93.70
15844;DHT22;50807;52.436;13.346;2022-11-15T03:30:23;9.40;93.70
15844;DHT22;50807;52.436;13.346;2022-11-15T03:30:56;9.40;93.70
15844;DHT22;50807;52.436;13.346;2022-11-15T03:31:33;9.40;93.70
15844;DHT22;50807;52.436;13.346;2022-11-15T03:32:23;9.40;93.70
15844;DHT22;50807;52.436;13.346;2022-11-15T03:32:58;9.40;93.70
15844;DHT22;50807;52.436;13.346;2022-11-15T03:33:31;9.40;93.70
15844;DHT22;50807;52.436;13.346;2022-11-15T03:34:05;9.40;93.70
15844;DHT22;50807;52.436;13.346;2022-11-15T03:34:43;9.40;93.70
15844;DHT22;50807;52.436;13.346;2022-11-15T03:35:21;9.40;93.70
15844;DHT22;50807;52.436;13.346;2022-11-15T03:35:54;9.40;93.70
15844;DHT22;50807;52.436;13.346;2022-11-15T03:36:27;9.40;93.70
15844;DHT22;50807;52.436;13.346;2022-11-15T03:37:01;9.40;93.70
15844;DHT22;50807;52.436;13.346;2022-11-15T03:37:36;9.40;93.80
15844;DHT22;50807;52.436;13.346;2022-11-15T03:38:15;9.40;93.80
15844;DHT22;50807;52.436;13.346;2022-11-15T03:38:53;9.40;93.80
15844;DHT22;50807;52.436;13.346;2022-11-15T03:39:28;9.40;93.90
15844;DHT22;50807;52.436;13.346;2022-11-15T03:40:00;9.40;93.80
15844;DHT22;50807;52.436;13.346;2022-11-15T03:40:37;9.40;93.80
15844;DHT22;50807;52.436;13.346;2022-11-15T03:41:14;9.40;93.90
15844;DHT22;50807;52.436;13.346;2022-11-15T03:41:57;9.40;93.90
15844;DHT22;50807;52.436;13.346;2022-11-15T03:42:42;9.40;93.90
15844;DHT22;50807;52.436;13.346;2022-11-15T03:43:24;9.40;93.90
15844;DHT22;50807;52.436;13.346;2022-11-15T03:44:04;9.40;93.90